sensor_id;sensor_type;location;lat;lon;timestamp;P1;durP1;ratioP1;P2;durP2;ratioP2
33403;SDS011;19751;40.274;18.268;2023-06-10T00:01:44;7.57;;;5.18;;
33403;SDS011;19751;40.274;18.268;2023-06-10T00:04:14;5.82;;;4.68;;
33403;SDS011;19751;40.274;18.268;2023-06-10T00:06:42;10.65;;;6.68;;
33403;SDS011;19751;40.274;18.268;2023-06-10T00:09:08;8.30;;;5.45;;
33403;SDS011;19751;40.274;18.268;2023-06-10T00:11:39;7.93;;;5.03;;
33403;SDS011;19751;40.274;18.268;2023-06-10T00:14:04;8.00;;;5.15;;
33403;SDS011;19751;40.274;18.268;2023-06-10T00:16:30;6.10;;;4.95;;
33403;SDS011;19751;40.274;18.268;2023-06-10T00:18:55;7.93;;;5.28;;
33403;SDS011;19751;40.274;18.268;2023-06-10T00:21:29;7.80;;;4.95;;
33403;SDS011;19751;40.274;18.268;2023-06-10T00:23:55;7.30;;;5.25;;
33403;SDS011;19751;40.274;18.268;2023-06-10T00:26:22;6.90;;;4.97;;
33403;SDS011;19751;40.274;18.268;2023-06-10T00:28:48;7.80;;;5.43;;
33403;SDS011;19751;40.274;18.268;2023-06-10T00:31:14;8.23;;;5.30;;
33403;SDS011;19751;40.274;18.268;2023-06-10T00:33:40;9.77;;;6.10;;
33403;SDS011;19751;40.274;18.268;2023-06-10T00:36:06;6.82;;;5.65;;
33403;SDS011;19751;40.274;18.268;2023-06-10T00:38:32;8.65;;;5.45;;
33403;SDS011;19751;40.274;18.268;2023-06-10T00:40:58;10.13;;;5.93;;
33403;SDS011;19751;40.274;18.268;2023-06-10T00:43:24;6.15;;;4.88;;
33403;SDS011;19751;40.274;18.268;2023-06-10T00:45:50;7.93;;;5.13;;
33403;SDS011;19751;40.274;18.268;2023-06-10T00:48:17;7.10;;;4.68;;
33403;SDS011;19751;40.274;18.268;2023-06-10T00:50:43;5.95;;;4.53;;
33403;SDS011;19751;40.274;18.268;2023-06-10T00:53:09;6.25;;;4.30;;
33403;SDS011;19751;40.274;18.268;2023-06-10T00:55:35;5.45;;;4.72;;
33403;SDS011;19751;40.274;18.268;2023-06-10T00:58:02;6.85;;;5.18;;
33403;SDS011;19751;40.274;18.268;2023-06-10T01:00:28;7.90;;;4.78;;
33403;SDS011;19751;40.274;18.268;2023-06-10T01:02:54;10.02;;;4.90;;
33403;SDS011;19751;40.274;18.268;2023-06-10T01:05:20;7.95;;;5.40;;
33403;SDS011;19751;40.274;18.268;2023-06-10T01:10:35;12.40;;;5.32;;
33403;SDS011;19751;40.274;18.268;2023-06-10T01:13:06;6.32;;;4.97;;
33403;SDS011;19751;40.274;18.268;2023-06-10T01:15:36;8.98;;;5.30;;
33403;SDS011;19751;40.274;18.268;2023-06-10T01:18:07;5.82;;;4.22;;
33403;SDS011;19751;40.274;18.268;2023-06-10T01:20:53;6.82;;;5.05;;
33403;SDS011;19751;40.274;18.268;2023-06-10T01:23:18;6.22;;;4.25;;
33403;SDS011;19751;40.274;18.268;2023-06-10T01:25:47;5.93;;;4.80;;
33403;SDS011;19751;40.274;18.268;2023-06-10T01:34:10;7.38;;;4.70;;
33403;SDS011;19751;40.274;18.268;2023-06-10T01:36:38;8.02;;;4.97;;
33403;SDS011;19751;40.274;18.268;2023-06-10T01:39:06;7.50;;;3.97;;
33403;SDS011;19751;40.274;18.268;2023-06-10T01:41:33;5.97;;;4.30;;
33403;SDS011;19751;40.274;18.268;2023-06-10T01:44:00;7.53;;;4.57;;
33403;SDS011;19751;40.274;18.268;2023-06-10T01:46:26;5.78;;;4.20;;
33403;SDS011;19751;40.274;18.268;2023-06-10T01:48:51;10.43;;;3.95;;
33403;SDS011;19751;40.274;18.268;2023-06-10T01:51:17;5.93;;;4.50;;
33403;SDS011;19751;40.274;18.268;2023-06-10T01:53:43;8.35;;;4.18;;
33403;SDS011;19751;40.274;18.268;2023-06-10T01:56:08;5.28;;;3.97;;
33403;SDS011;19751;40.274;18.268;2023-06-10T01:58:34;5.05;;;4.00;;
33403;SDS011;19751;40.274;18.268;2023-06-10T02:01:00;7.53;;;4.05;;
33403;SDS011;19751;40.274;18.268;2023-06-10T02:03:25;5.55;;;4.00;;
33403;SDS011;19751;40.274;18.268;2023-06-10T02:05:51;6.45;;;4.22;;
33403;SDS011;19751;40.274;18.268;2023-06-10T02:08:16;9.23;;;4.80;;
33403;SDS011;19751;40.274;18.268;2023-06-10T02:10:42;7.18;;;4.10;;
33403;SDS011;19751;40.274;18.268;2023-06-10T02:13:07;4.85;;;4.00;;
33403;SDS011;19751;40.274;18.268;2023-06-10T02:15:33;5.65;;;3.83;;
33403;SDS011;19751;40.274;18.268;2023-06-10T02:17:59;4.07;;;3.30;;
33403;SDS011;19751;40.274;18.268;2023-06-10T02:20:25;5.18;;;4.20;;
33403;SDS011;19751;40.274;18.268;2023-06-10T02:22:51;5.22;;;4.25;;
33403;SDS011;19751;40.274;18.268;2023-06-10T02:25:16;7.15;;;4.13;;
33403;SDS011;19751;40.274;18.268;2023-06-10T02:27:42;7.00;;;4.30;;
33403;SDS011;19751;40.274;18.268;2023-06-10T02:30:08;5.70;;;3.67;;
33403;SDS011;19751;40.274;18.268;2023-06-10T02:32:35;5.47;;;4.45;;
33403;SDS011;19751;40.274;18.268;2023-06-10T02:35:01;15.93;;;4.28;;
33403;SDS011;19751;40.274;18.268;2023-06-10T02:37:26;6.07;;;4.05;;
33403;SDS011;19751;40.274;18.268;2023-06-10T02:39:52;7.07;;;4.50;;
33403;SDS011;19751;40.274;18.268;2023-06-10T02:42:17;5.82;;;4.25;;
33403;SDS011;19751;40.274;18.268;2023-06-10T02:44:43;5.35;;;4.40;;
33403;SDS011;19751;40.274;18.268;2023-06-10T02:47:09;9.45;;;4.47;;
33403;SDS011;19751;40.274;18.268;2023-06-10T02:49:34;9.13;;;5.95;;
33403;SDS011;19751;40.274;18.268;2023-06-10T02:52:00;6.47;;;3.70;;
33403;SDS011;19751;40.274;18.268;2023-06-10T02:54:26;6.65;;;3.92;;
33403;SDS011;19751;40.274;18.268;2023-06-10T02:56:52;7.88;;;4.50;;
33403;SDS011;19751;40.274;18.268;2023-06-10T02:59:18;5.10;;;3.90;;
33403;SDS011;19751;40.274;18.268;2023-06-10T03:01:45;5.53;;;3.63;;
33403;SDS011;19751;40.274;18.268;2023-06-10T03:04:11;10.23;;;4.30;;
33403;SDS011;19751;40.274;18.268;2023-06-10T03:06:38;5.60;;;4.10;;
33403;SDS011;19751;40.274;18.268;2023-06-10T03:09:06;7.13;;;4.72;;
33403;SDS011;19751;40.274;18.268;2023-06-10T03:11:34;7.03;;;4.53;;
33403;SDS011;19751;40.274;18.268;2023-06-10T03:14:00;6.18;;;3.78;;
33403;SDS011;19751;40.274;18.268;2023-06-10T03:16:25;5.22;;;3.83;;
33403;SDS011;19751;40.274;18.268;2023-06-10T03:18:52;8.18;;;5.28;;
33403;SDS011;19751;40.274;18.268;2023-06-10T03:21:17;3.90;;;3.42;;
33403;SDS011;19751;40.274;18.268;2023-06-10T03:23:43;4.60;;;3.33;;
33403;SDS011;19751;40.274;18.268;2023-06-10T03:26:08;7.45;;;4.15;;
33403;SDS011;19751;40.274;18.268;2023-06-10T03:28:35;5.32;;;3.47;;
33403;SDS011;19751;40.274;18.268;2023-06-10T03:31:00;7.75;;;4.15;;
33403;SDS011;19751;40.274;18.268;2023-06-10T03:33:26;4.82;;;3.60;;
33403;SDS011;19751;40.274;18.268;2023-06-10T03:35:51;5.05;;;3.90;;
33403;SDS011;19751;40.274;18.268;2023-06-10T03:38:17;8.43;;;4.78;;
33403;SDS011;19751;40.274;18.268;2023-06-10T03:40:42;5.85;;;4.65;;
33403;SDS011;19751;40.274;18.268;2023-06-10T03:43:09;7.97;;;4.57;;
33403;SDS011;19751;40.274;18.268;2023-06-10T03:45:35;8.43;;;3.92;;
33403;SDS011;19751;40.274;18.268;2023-06-10T03:48:01;4.97;;;3.88;;
33403;SDS011;19751;40.274;18.268;2023-06-10T03:50:28;5.32;;;3.75;;
33403;SDS011;19751;40.274;18.268;2023-06-10T03:52:54;4.43;;;4.03;;
33403;SDS011;19751;40.274;18.268;2023-06-10T03:55:19;7.10;;;3.90;;
33403;SDS011;19751;40.274;18.268;2023-06-10T03:57:46;7.57;;;5.20;;
33403;SDS011;19751;40.274;18.268;2023-06-10T04:00:13;6.80;;;4.35;;
33403;SDS011;19751;40.274;18.268;2023-06-10T04:02:40;5.35;;;4.18;;
33403;SDS011;19751;40.274;18.268;2023-06-10T04:05:12;5.95;;;3.75;;
33403;SDS011;19751;40.274;18.268;2023-06-10T04:07:39;5.70;;;3.72;;
33403;SDS011;19751;40.274;18.268;2023-06-10T04:10:06;6.60;;;4.25;;
33403;SDS011;19751;40.274;18.268;2023-06-10T04:12:32;7.45;;;4.40;;
33403;SDS011;19751;40.274;18.268;2023-06-10T04:14:58;3.90;;;3.33;;
33403;SDS011;19751;40.274;18.268;2023-06-10T04:17:24;5.60;;;3.90;;
33403;SDS011;19751;40.274;18.268;2023-06-10T04:19:50;4.15;;;3.65;;
33403;SDS011;19751;40.274;18.268;2023-06-10T04:22:16;5.95;;;3.20;;
33403;SDS011;19751;40.274;18.268;2023-06-10T04:24:43;4.40;;;3.15;;
33403;SDS011;19751;40.274;18.268;2023-06-10T04:27:08;5.30;;;3.53;;
33403;SDS011;19751;40.274;18.268;2023-06-10T04:29:34;3.65;;;3.13;;
33403;SDS011;19751;40.274;18.268;2023-06-10T04:31:59;5.00;;;3.50;;
33403;SDS011;19751;40.274;18.268;2023-06-10T04:34:26;5.25;;;3.47;;
33403;SDS011;19751;40.274;18.268;2023-06-10T04:36:52;7.57;;;3.88;;
33403;SDS011;19751;40.274;18.268;2023-06-10T04:39:18;4.18;;;3.15;;
33403;SDS011;19751;40.274;18.268;2023-06-10T04:41:43;3.97;;;3.20;;
33403;SDS011;19751;40.274;18.268;2023-06-10T04:44:09;4.28;;;3.35;;
33403;SDS011;19751;40.274;18.268;2023-06-10T04:46:35;4.70;;;3.20;;
33403;SDS011;19751;40.274;18.268;2023-06-10T04:49:01;4.57;;;3.03;;
33403;SDS011;19751;40.274;18.268;2023-06-10T04:51:27;6.03;;;3.00;;
33403;SDS011;19751;40.274;18.268;2023-06-10T04:53:53;5.38;;;3.17;;
33403;SDS011;19751;40.274;18.268;2023-06-10T04:56:18;3.47;;;3.13;;
33403;SDS011;19751;40.274;18.268;2023-06-10T04:58:45;6.10;;;3.22;;
33403;SDS011;19751;40.274;18.268;2023-06-10T05:01:11;5.15;;;3.55;;
33403;SDS011;19751;40.274;18.268;2023-06-10T05:03:36;4.78;;;3.47;;
33403;SDS011;19751;40.274;18.268;2023-06-10T05:06:01;7.03;;;3.03;;
33403;SDS011;19751;40.274;18.268;2023-06-10T05:08:27;4.88;;;2.80;;
33403;SDS011;19751;40.274;18.268;2023-06-10T05:10:52;4.13;;;2.85;;
33403;SDS011;19751;40.274;18.268;2023-06-10T05:13:18;3.35;;;3.05;;
33403;SDS011;19751;40.274;18.268;2023-06-10T05:15:43;4.82;;;3.35;;
33403;SDS011;19751;40.274;18.268;2023-06-10T05:18:10;4.75;;;3.28;;
33403;SDS011;19751;40.274;18.268;2023-06-10T05:20:37;5.05;;;3.88;;
33403;SDS011;19751;40.274;18.268;2023-06-10T05:23:03;4.20;;;3.35;;
33403;SDS011;19751;40.274;18.268;2023-06-10T05:25:32;3.42;;;3.05;;
33403;SDS011;19751;40.274;18.268;2023-06-10T05:27:58;4.72;;;3.38;;
33403;SDS011;19751;40.274;18.268;2023-06-10T05:30:24;8.40;;;3.35;;
33403;SDS011;19751;40.274;18.268;2023-06-10T05:32:50;4.35;;;3.55;;
33403;SDS011;19751;40.274;18.268;2023-06-10T05:35:16;3.70;;;3.30;;
33403;SDS011;19751;40.274;18.268;2023-06-10T05:37:42;3.47;;;3.03;;
33403;SDS011;19751;40.274;18.268;2023-06-10T05:40:08;3.28;;;2.97;;
33403;SDS011;19751;40.274;18.268;2023-06-10T05:42:34;4.18;;;3.05;;
33403;SDS011;19751;40.274;18.268;2023-06-10T05:45:00;3.80;;;3.47;;
33403;SDS011;19751;40.274;18.268;2023-06-10T05:47:25;4.25;;;3.08;;
33403;SDS011;19751;40.274;18.268;2023-06-10T05:49:51;5.20;;;3.55;;
33403;SDS011;19751;40.274;18.268;2023-06-10T05:52:17;7.97;;;3.40;;
33403;SDS011;19751;40.274;18.268;2023-06-10T05:54:44;5.78;;;3.17;;
33403;SDS011;19751;40.274;18.268;2023-06-10T05:57:10;3.35;;;3.05;;
33403;SDS011;19751;40.274;18.268;2023-06-10T05:59:35;5.95;;;2.70;;
33403;SDS011;19751;40.274;18.268;2023-06-10T06:02:01;2.90;;;2.60;;
33403;SDS011;19751;40.274;18.268;2023-06-10T06:04:27;3.30;;;3.00;;
33403;SDS011;19751;40.274;18.268;2023-06-10T06:06:52;4.35;;;3.17;;
33403;SDS011;19751;40.274;18.268;2023-06-10T06:09:18;5.18;;;2.88;;
33403;SDS011;19751;40.274;18.268;2023-06-10T06:11:43;3.40;;;2.85;;
33403;SDS011;19751;40.274;18.268;2023-06-10T06:14:09;6.07;;;3.92;;
33403;SDS011;19751;40.274;18.268;2023-06-10T06:16:34;8.20;;;4.63;;
33403;SDS011;19751;40.274;18.268;2023-06-10T06:19:00;8.90;;;4.55;;
33403;SDS011;19751;40.274;18.268;2023-06-10T06:21:25;9.93;;;5.28;;
33403;SDS011;19751;40.274;18.268;2023-06-10T06:23:51;6.70;;;4.95;;
33403;SDS011;19751;40.274;18.268;2023-06-10T06:26:16;7.07;;;4.25;;
33403;SDS011;19751;40.274;18.268;2023-06-10T06:28:42;9.02;;;5.00;;
33403;SDS011;19751;40.274;18.268;2023-06-10T06:31:07;8.07;;;4.30;;
33403;SDS011;19751;40.274;18.268;2023-06-10T06:33:33;6.13;;;3.20;;
33403;SDS011;19751;40.274;18.268;2023-06-10T06:35:58;3.60;;;2.88;;
33403;SDS011;19751;40.274;18.268;2023-06-10T06:38:25;2.92;;;2.40;;
33403;SDS011;19751;40.274;18.268;2023-06-10T06:40:51;2.72;;;2.25;;
33403;SDS011;19751;40.274;18.268;2023-06-10T06:43:16;6.15;;;3.58;;
33403;SDS011;19751;40.274;18.268;2023-06-10T06:45:43;15.65;;;4.45;;
33403;SDS011;19751;40.274;18.268;2023-06-10T06:48:11;8.95;;;3.53;;
33403;SDS011;19751;40.274;18.268;2023-06-10T06:50:36;4.13;;;3.28;;
33403;SDS011;19751;40.274;18.268;2023-06-10T06:53:02;10.20;;;3.30;;
33403;SDS011;19751;40.274;18.268;2023-06-10T06:55:28;5.15;;;2.72;;
33403;SDS011;19751;40.274;18.268;2023-06-10T06:57:54;4.20;;;2.47;;
33403;SDS011;19751;40.274;18.268;2023-06-10T07:00:20;24.95;;;4.10;;
33403;SDS011;19751;40.274;18.268;2023-06-10T07:02:46;24.20;;;5.28;;
33403;SDS011;19751;40.274;18.268;2023-06-10T07:05:11;11.65;;;3.72;;
33403;SDS011;19751;40.274;18.268;2023-06-10T07:07:37;9.13;;;2.92;;
33403;SDS011;19751;40.274;18.268;2023-06-10T07:10:02;4.15;;;2.65;;
33403;SDS011;19751;40.274;18.268;2023-06-10T07:12:28;5.93;;;3.05;;
33403;SDS011;19751;40.274;18.268;2023-06-10T07:14:54;4.18;;;2.38;;
33403;SDS011;19751;40.274;18.268;2023-06-10T07:17:19;4.20;;;2.53;;
33403;SDS011;19751;40.274;18.268;2023-06-10T07:19:45;3.55;;;2.40;;
33403;SDS011;19751;40.274;18.268;2023-06-10T07:22:11;2.58;;;2.17;;
33403;SDS011;19751;40.274;18.268;2023-06-10T07:24:37;3.72;;;2.65;;
33403;SDS011;19751;40.274;18.268;2023-06-10T07:27:02;2.08;;;1.92;;
33403;SDS011;19751;40.274;18.268;2023-06-10T07:29:28;4.90;;;2.35;;
33403;SDS011;19751;40.274;18.268;2023-06-10T07:31:53;3.60;;;2.50;;
33403;SDS011;19751;40.274;18.268;2023-06-10T07:34:19;3.38;;;2.42;;
33403;SDS011;19751;40.274;18.268;2023-06-10T07:36:44;2.45;;;2.22;;
33403;SDS011;19751;40.274;18.268;2023-06-10T07:39:10;2.80;;;2.45;;
33403;SDS011;19751;40.274;18.268;2023-06-10T07:41:35;6.72;;;3.97;;
33403;SDS011;19751;40.274;18.268;2023-06-10T07:44:01;5.82;;;3.25;;
33403;SDS011;19751;40.274;18.268;2023-06-10T07:46:27;6.32;;;2.75;;
33403;SDS011;19751;40.274;18.268;2023-06-10T07:48:53;5.30;;;2.33;;
33403;SDS011;19751;40.274;18.268;2023-06-10T07:51:19;3.00;;;2.67;;
33403;SDS011;19751;40.274;18.268;2023-06-10T07:53:45;3.65;;;2.17;;
33403;SDS011;19751;40.274;18.268;2023-06-10T07:56:11;2.80;;;2.10;;
33403;SDS011;19751;40.274;18.268;2023-06-10T07:58:36;3.20;;;2.30;;
33403;SDS011;19751;40.274;18.268;2023-06-10T08:01:02;3.17;;;2.33;;
33403;SDS011;19751;40.274;18.268;2023-06-10T08:03:28;3.45;;;1.85;;
33403;SDS011;19751;40.274;18.268;2023-06-10T08:05:53;7.72;;;2.80;;
33403;SDS011;19751;40.274;18.268;2023-06-10T08:08:19;4.10;;;2.35;;
33403;SDS011;19751;40.274;18.268;2023-06-10T08:10:44;4.75;;;2.88;;
33403;SDS011;19751;40.274;18.268;2023-06-10T08:13:10;7.15;;;2.50;;
33403;SDS011;19751;40.274;18.268;2023-06-10T08:15:35;3.50;;;2.30;;
33403;SDS011;19751;40.274;18.268;2023-06-10T08:18:01;2.38;;;2.17;;
33403;SDS011;19751;40.274;18.268;2023-06-10T08:20:26;3.15;;;2.80;;
33403;SDS011;19751;40.274;18.268;2023-06-10T08:22:52;3.28;;;2.97;;
33403;SDS011;19751;40.274;18.268;2023-06-10T08:25:18;3.67;;;2.67;;
33403;SDS011;19751;40.274;18.268;2023-06-10T08:27:43;10.15;;;3.45;;
33403;SDS011;19751;40.274;18.268;2023-06-10T08:30:09;4.13;;;3.20;;
33403;SDS011;19751;40.274;18.268;2023-06-10T08:32:36;3.75;;;2.80;;
33403;SDS011;19751;40.274;18.268;2023-06-10T08:35:01;3.47;;;2.50;;
33403;SDS011;19751;40.274;18.268;2023-06-10T08:37:28;3.60;;;3.10;;
33403;SDS011;19751;40.274;18.268;2023-06-10T08:39:53;3.67;;;2.67;;
33403;SDS011;19751;40.274;18.268;2023-06-10T08:42:22;3.90;;;2.67;;
33403;SDS011;19751;40.274;18.268;2023-06-10T08:47:20;3.28;;;2.85;;
33403;SDS011;19751;40.274;18.268;2023-06-10T08:49:48;2.78;;;2.30;;
33403;SDS011;19751;40.274;18.268;2023-06-10T08:52:19;2.90;;;2.67;;
33403;SDS011;19751;40.274;18.268;2023-06-10T08:54:49;3.25;;;2.70;;
33403;SDS011;19751;40.274;18.268;2023-06-10T08:57:20;2.80;;;2.50;;
33403;SDS011;19751;40.274;18.268;2023-06-10T08:59:46;4.45;;;2.88;;
33403;SDS011;19751;40.274;18.268;2023-06-10T09:02:13;3.83;;;3.20;;
33403;SDS011;19751;40.274;18.268;2023-06-10T09:04:42;4.75;;;2.72;;
33403;SDS011;19751;40.274;18.268;2023-06-10T09:07:09;4.32;;;2.78;;
33403;SDS011;19751;40.274;18.268;2023-06-10T09:09:35;4.15;;;2.90;;
33403;SDS011;19751;40.274;18.268;2023-06-10T09:12:02;2.83;;;2.47;;
33403;SDS011;19751;40.274;18.268;2023-06-10T09:14:28;6.05;;;3.00;;
33403;SDS011;19751;40.274;18.268;2023-06-10T09:16:54;3.42;;;2.78;;
33403;SDS011;19751;40.274;18.268;2023-06-10T09:19:23;5.68;;;3.40;;
33403;SDS011;19751;40.274;18.268;2023-06-10T09:21:50;3.30;;;2.53;;
33403;SDS011;19751;40.274;18.268;2023-06-10T09:24:16;2.90;;;2.70;;
33403;SDS011;19751;40.274;18.268;2023-06-10T09:26:42;2.50;;;2.28;;
33403;SDS011;19751;40.274;18.268;2023-06-10T09:29:08;5.85;;;3.17;;
33403;SDS011;19751;40.274;18.268;2023-06-10T09:31:35;5.65;;;2.60;;
33403;SDS011;19751;40.274;18.268;2023-06-10T09:34:09;5.15;;;3.65;;
33403;SDS011;19751;40.274;18.268;2023-06-10T09:36:40;3.30;;;3.05;;
33403;SDS011;19751;40.274;18.268;2023-06-10T09:39:16;3.13;;;2.67;;
33403;SDS011;19751;40.274;18.268;2023-06-10T09:41:43;2.70;;;2.50;;
33403;SDS011;19751;40.274;18.268;2023-06-10T09:44:20;4.10;;;2.15;;
33403;SDS011;19751;40.274;18.268;2023-06-10T09:46:47;3.03;;;2.50;;
33403;SDS011;19751;40.274;18.268;2023-06-10T09:49:18;2.60;;;2.40;;
33403;SDS011;19751;40.274;18.268;2023-06-10T09:51:51;2.47;;;2.28;;
33403;SDS011;19751;40.274;18.268;2023-06-10T09:54:18;3.25;;;2.45;;
33403;SDS011;19751;40.274;18.268;2023-06-10T09:56:46;2.72;;;2.10;;
33403;SDS011;19751;40.274;18.268;2023-06-10T09:59:16;3.97;;;2.88;;
33403;SDS011;19751;40.274;18.268;2023-06-10T10:01:56;4.13;;;2.40;;
33403;SDS011;19751;40.274;18.268;2023-06-10T10:04:25;3.05;;;2.47;;
33403;SDS011;19751;40.274;18.268;2023-06-10T10:06:51;7.45;;;3.17;;
33403;SDS011;19751;40.274;18.268;2023-06-10T10:09:16;2.63;;;2.35;;
33403;SDS011;19751;40.274;18.268;2023-06-10T10:11:42;2.60;;;2.22;;
33403;SDS011;19751;40.274;18.268;2023-06-10T10:14:09;4.22;;;2.65;;
33403;SDS011;19751;40.274;18.268;2023-06-10T10:16:37;5.13;;;2.53;;
33403;SDS011;19751;40.274;18.268;2023-06-10T10:19:07;4.20;;;3.30;;
33403;SDS011;19751;40.274;18.268;2023-06-10T10:21:37;3.33;;;2.15;;
33403;SDS011;19751;40.274;18.268;2023-06-10T10:24:09;4.05;;;2.22;;
33403;SDS011;19751;40.274;18.268;2023-06-10T10:26:41;3.80;;;2.40;;
33403;SDS011;19751;40.274;18.268;2023-06-10T10:29:11;3.70;;;3.33;;
33403;SDS011;19751;40.274;18.268;2023-06-10T10:31:50;5.05;;;3.53;;
33403;SDS011;19751;40.274;18.268;2023-06-10T10:34:21;3.92;;;2.92;;
33403;SDS011;19751;40.274;18.268;2023-06-10T10:36:58;2.85;;;2.30;;
33403;SDS011;19751;40.274;18.268;2023-06-10T10:39:24;2.67;;;1.75;;
33403;SDS011;19751;40.274;18.268;2023-06-10T10:41:53;4.00;;;2.03;;
33403;SDS011;19751;40.274;18.268;2023-06-10T10:44:19;2.63;;;2.30;;
33403;SDS011;19751;40.274;18.268;2023-06-10T10:46:49;3.75;;;2.17;;
33403;SDS011;19751;40.274;18.268;2023-06-10T10:49:16;5.30;;;1.75;;
33403;SDS011;19751;40.274;18.268;2023-06-10T10:51:58;2.22;;;1.75;;
33403;SDS011;19751;40.274;18.268;2023-06-10T10:54:32;3.50;;;2.17;;
33403;SDS011;19751;40.274;18.268;2023-06-10T10:57:10;2.80;;;1.83;;
33403;SDS011;19751;40.274;18.268;2023-06-10T11:02:32;2.55;;;1.98;;
33403;SDS011;19751;40.274;18.268;2023-06-10T11:04:58;4.63;;;1.88;;
33403;SDS011;19751;40.274;18.268;2023-06-10T11:07:25;4.00;;;1.98;;
33403;SDS011;19751;40.274;18.268;2023-06-10T11:10:01;4.28;;;1.60;;
33403;SDS011;19751;40.274;18.268;2023-06-10T11:15:19;2.45;;;1.60;;
33403;SDS011;19751;40.274;18.268;2023-06-10T11:20:50;3.45;;;1.73;;
33403;SDS011;19751;40.274;18.268;2023-06-10T11:26:10;5.10;;;2.03;;
33403;SDS011;19751;40.274;18.268;2023-06-10T11:31:20;6.53;;;3.72;;
33403;SDS011;19751;40.274;18.268;2023-06-10T11:33:52;15.30;;;4.22;;
33403;SDS011;19751;40.274;18.268;2023-06-10T11:36:18;11.85;;;4.22;;
33403;SDS011;19751;40.274;18.268;2023-06-10T11:38:45;4.25;;;3.70;;
33403;SDS011;19751;40.274;18.268;2023-06-10T11:41:13;9.95;;;5.05;;
33403;SDS011;19751;40.274;18.268;2023-06-10T11:43:43;13.40;;;5.38;;
33403;SDS011;19751;40.274;18.268;2023-06-10T11:46:12;13.27;;;4.95;;
33403;SDS011;19751;40.274;18.268;2023-06-10T11:48:39;10.15;;;4.20;;
33403;SDS011;19751;40.274;18.268;2023-06-10T11:51:07;7.28;;;4.15;;
33403;SDS011;19751;40.274;18.268;2023-06-10T11:53:33;10.07;;;4.13;;
33403;SDS011;19751;40.274;18.268;2023-06-10T11:55:59;10.63;;;4.50;;
33403;SDS011;19751;40.274;18.268;2023-06-10T11:58:24;7.22;;;4.30;;
33403;SDS011;19751;40.274;18.268;2023-06-10T12:00:50;8.45;;;4.45;;
33403;SDS011;19751;40.274;18.268;2023-06-10T12:03:18;11.60;;;4.78;;
33403;SDS011;19751;40.274;18.268;2023-06-10T12:06:00;10.15;;;3.45;;
33403;SDS011;19751;40.274;18.268;2023-06-10T12:08:27;6.53;;;2.17;;
33403;SDS011;19751;40.274;18.268;2023-06-10T12:10:53;5.72;;;2.40;;
33403;SDS011;19751;40.274;18.268;2023-06-10T12:13:20;3.95;;;2.05;;
33403;SDS011;19751;40.274;18.268;2023-06-10T12:15:46;4.82;;;1.92;;
33403;SDS011;19751;40.274;18.268;2023-06-10T12:18:22;3.35;;;2.55;;
33403;SDS011;19751;40.274;18.268;2023-06-10T12:20:48;2.97;;;2.20;;
33403;SDS011;19751;40.274;18.268;2023-06-10T12:23:16;6.40;;;3.22;;
33403;SDS011;19751;40.274;18.268;2023-06-10T12:25:49;5.78;;;3.00;;
33403;SDS011;19751;40.274;18.268;2023-06-10T12:28:16;8.30;;;3.45;;
33403;SDS011;19751;40.274;18.268;2023-06-10T12:30:44;5.82;;;3.22;;
33403;SDS011;19751;40.274;18.268;2023-06-10T12:33:19;4.57;;;2.65;;
33403;SDS011;19751;40.274;18.268;2023-06-10T12:35:52;5.45;;;2.90;;
33403;SDS011;19751;40.274;18.268;2023-06-10T12:38:21;5.00;;;3.00;;
33403;SDS011;19751;40.274;18.268;2023-06-10T12:40:49;4.90;;;3.35;;
33403;SDS011;19751;40.274;18.268;2023-06-10T12:43:19;7.50;;;4.40;;
33403;SDS011;19751;40.274;18.268;2023-06-10T12:45:46;8.23;;;4.43;;
33403;SDS011;19751;40.274;18.268;2023-06-10T12:50:53;10.43;;;4.28;;
33403;SDS011;19751;40.274;18.268;2023-06-10T12:53:21;5.95;;;3.30;;
33403;SDS011;19751;40.274;18.268;2023-06-10T12:55:54;9.85;;;3.63;;
33403;SDS011;19751;40.274;18.268;2023-06-10T12:58:19;7.55;;;4.40;;
33403;SDS011;19751;40.274;18.268;2023-06-10T13:00:47;5.40;;;3.15;;
33403;SDS011;19751;40.274;18.268;2023-06-10T13:03:13;4.72;;;2.45;;
33403;SDS011;19751;40.274;18.268;2023-06-10T13:05:40;3.95;;;2.88;;
33403;SDS011;19751;40.274;18.268;2023-06-10T13:08:06;3.28;;;2.10;;
33403;SDS011;19751;40.274;18.268;2023-06-10T13:10:33;4.75;;;1.77;;
33403;SDS011;19751;40.274;18.268;2023-06-10T13:13:02;6.38;;;1.70;;
33403;SDS011;19751;40.274;18.268;2023-06-10T13:15:30;4.45;;;2.40;;
33403;SDS011;19751;40.274;18.268;2023-06-10T13:17:56;3.00;;;1.20;;
33403;SDS011;19751;40.274;18.268;2023-06-10T13:20:21;1.48;;;1.38;;
33403;SDS011;19751;40.274;18.268;2023-06-10T13:22:47;3.67;;;1.40;;
33403;SDS011;19751;40.274;18.268;2023-06-10T13:25:14;5.50;;;1.08;;
33403;SDS011;19751;40.274;18.268;2023-06-10T13:27:40;2.88;;;1.35;;
33403;SDS011;19751;40.274;18.268;2023-06-10T13:30:07;3.47;;;1.35;;
33403;SDS011;19751;40.274;18.268;2023-06-10T13:32:34;2.75;;;1.30;;
33403;SDS011;19751;40.274;18.268;2023-06-10T13:35:00;1.60;;;1.10;;
33403;SDS011;19751;40.274;18.268;2023-06-10T13:37:26;2.17;;;1.35;;
33403;SDS011;19751;40.274;18.268;2023-06-10T13:39:52;2.05;;;1.40;;
33403;SDS011;19751;40.274;18.268;2023-06-10T13:42:17;1.48;;;1.33;;
33403;SDS011;19751;40.274;18.268;2023-06-10T13:44:44;2.10;;;1.60;;
33403;SDS011;19751;40.274;18.268;2023-06-10T13:47:09;8.15;;;3.55;;
33403;SDS011;19751;40.274;18.268;2023-06-10T13:49:35;8.30;;;4.20;;
33403;SDS011;19751;40.274;18.268;2023-06-10T13:52:01;13.85;;;4.63;;
33403;SDS011;19751;40.274;18.268;2023-06-10T13:54:27;10.38;;;4.78;;
33403;SDS011;19751;40.274;18.268;2023-06-10T13:56:53;12.52;;;4.90;;
33403;SDS011;19751;40.274;18.268;2023-06-10T13:59:19;11.07;;;4.68;;
33403;SDS011;19751;40.274;18.268;2023-06-10T14:01:45;8.75;;;3.47;;
33403;SDS011;19751;40.274;18.268;2023-06-10T14:04:11;7.82;;;3.10;;
33403;SDS011;19751;40.274;18.268;2023-06-10T14:06:36;6.30;;;1.98;;
33403;SDS011;19751;40.274;18.268;2023-06-10T14:09:02;8.50;;;2.67;;
33403;SDS011;19751;40.274;18.268;2023-06-10T14:11:27;3.50;;;2.65;;
33403;SDS011;19751;40.274;18.268;2023-06-10T14:13:53;8.05;;;2.75;;
33403;SDS011;19751;40.274;18.268;2023-06-10T14:16:21;6.28;;;3.15;;
33403;SDS011;19751;40.274;18.268;2023-06-10T14:18:47;4.43;;;2.45;;
33403;SDS011;19751;40.274;18.268;2023-06-10T14:21:13;6.78;;;4.20;;
33403;SDS011;19751;40.274;18.268;2023-06-10T14:23:38;2.80;;;2.33;;
33403;SDS011;19751;40.274;18.268;2023-06-10T14:26:04;3.50;;;2.80;;
33403;SDS011;19751;40.274;18.268;2023-06-10T14:28:31;6.03;;;2.95;;
33403;SDS011;19751;40.274;18.268;2023-06-10T14:30:56;4.05;;;2.83;;
33403;SDS011;19751;40.274;18.268;2023-06-10T14:33:22;3.08;;;2.42;;
33403;SDS011;19751;40.274;18.268;2023-06-10T14:35:48;8.52;;;2.95;;
33403;SDS011;19751;40.274;18.268;2023-06-10T14:38:14;2.75;;;2.55;;
33403;SDS011;19751;40.274;18.268;2023-06-10T14:40:39;3.55;;;2.50;;
33403;SDS011;19751;40.274;18.268;2023-06-10T14:43:05;7.00;;;3.28;;
33403;SDS011;19751;40.274;18.268;2023-06-10T14:45:35;4.57;;;2.30;;
33403;SDS011;19751;40.274;18.268;2023-06-10T14:48:02;14.77;;;4.38;;
33403;SDS011;19751;40.274;18.268;2023-06-10T14:50:29;7.85;;;3.05;;
33403;SDS011;19751;40.274;18.268;2023-06-10T14:52:54;9.10;;;4.05;;
33403;SDS011;19751;40.274;18.268;2023-06-10T14:55:20;11.82;;;3.90;;
33403;SDS011;19751;40.274;18.268;2023-06-10T14:57:45;6.82;;;3.90;;
33403;SDS011;19751;40.274;18.268;2023-06-10T15:00:11;8.05;;;4.20;;